sensor_id;sensor_type;location;lat;lon;timestamp;P1;durP1;ratioP1;P2;durP2;ratioP2
6479;SDS011;71753;48.772;9.148;2023-09-19T00:00:05;0.97;;;0.90;;
6479;SDS011;71753;48.772;9.148;2023-09-19T00:02:38;1.40;;;1.13;;
6479;SDS011;71753;48.772;9.148;2023-09-19T00:05:05;1.10;;;0.93;;
6479;SDS011;71753;48.772;9.148;2023-09-19T00:07:33;1.10;;;1.00;;
6479;SDS011;71753;48.772;9.148;2023-09-19T00:10:02;1.27;;;1.10;;
6479;SDS011;71753;48.772;9.148;2023-09-19T00:12:29;1.07;;;0.97;;
6479;SDS011;71753;48.772;9.148;2023-09-19T00:14:56;1.33;;;1.00;;
6479;SDS011;71753;48.772;9.148;2023-09-19T00:17:27;1.10;;;0.97;;
6479;SDS011;71753;48.772;9.148;2023-09-19T00:19:55;1.43;;;1.10;;
6479;SDS011;71753;48.772;9.148;2023-09-19T00:22:22;1.00;;;0.90;;
6479;SDS011;71753;48.772;9.148;2023-09-19T00:24:51;1.13;;;1.03;;
6479;SDS011;71753;48.772;9.148;2023-09-19T00:27:17;2.17;;;1.10;;
6479;SDS011;71753;48.772;9.148;2023-09-19T00:29:44;1.30;;;1.20;;
6479;SDS011;71753;48.772;9.148;2023-09-19T00:32:11;2.10;;;0.93;;
6479;SDS011;71753;48.772;9.148;2023-09-19T00:34:39;0.90;;;0.90;;
6479;SDS011;71753;48.772;9.148;2023-09-19T00:37:07;1.10;;;1.00;;
6479;SDS011;71753;48.772;9.148;2023-09-19T00:39:36;0.70;;;0.70;;
6479;SDS011;71753;48.772;9.148;2023-09-19T00:42:03;0.90;;;0.90;;
6479;SDS011;71753;48.772;9.148;2023-09-19T00:44:30;0.83;;;0.80;;
6479;SDS011;71753;48.772;9.148;2023-09-19T00:46:57;1.57;;;1.10;;
6479;SDS011;71753;48.772;9.148;2023-09-19T00:49:24;1.00;;;0.87;;
6479;SDS011;71753;48.772;9.148;2023-09-19T00:51:52;1.80;;;0.97;;
6479;SDS011;71753;48.772;9.148;2023-09-19T00:54:19;1.30;;;1.10;;
6479;SDS011;71753;48.772;9.148;2023-09-19T00:56:46;1.20;;;1.10;;
6479;SDS011;71753;48.772;9.148;2023-09-19T00:59:14;1.00;;;0.90;;
6479;SDS011;71753;48.772;9.148;2023-09-19T01:01:40;0.90;;;0.90;;
6479;SDS011;71753;48.772;9.148;2023-09-19T01:04:10;1.33;;;1.10;;
6479;SDS011;71753;48.772;9.148;2023-09-19T01:06:37;1.07;;;1.00;;
6479;SDS011;71753;48.772;9.148;2023-09-19T01:09:06;0.83;;;0.83;;
6479;SDS011;71753;48.772;9.148;2023-09-19T01:11:34;0.97;;;0.93;;
6479;SDS011;71753;48.772;9.148;2023-09-19T01:14:09;0.80;;;0.80;;
6479;SDS011;71753;48.772;9.148;2023-09-19T01:16:45;2.20;;;1.00;;
6479;SDS011;71753;48.772;9.148;2023-09-19T01:19:23;0.97;;;0.90;;
6479;SDS011;71753;48.772;9.148;2023-09-19T01:22:11;1.20;;;0.83;;
6479;SDS011;71753;48.772;9.148;2023-09-19T01:30:57;1.17;;;1.00;;
6479;SDS011;71753;48.772;9.148;2023-09-19T01:33:25;1.30;;;0.93;;
6479;SDS011;71753;48.772;9.148;2023-09-19T01:35:52;1.20;;;1.10;;
6479;SDS011;71753;48.772;9.148;2023-09-19T01:38:22;0.80;;;0.80;;
6479;SDS011;71753;48.772;9.148;2023-09-19T01:40:51;1.10;;;1.00;;
6479;SDS011;71753;48.772;9.148;2023-09-19T01:43:26;0.90;;;0.90;;
6479;SDS011;71753;48.772;9.148;2023-09-19T01:45:59;1.40;;;0.90;;
6479;SDS011;71753;48.772;9.148;2023-09-19T01:48:33;1.00;;;0.90;;
6479;SDS011;71753;48.772;9.148;2023-09-19T01:51:05;2.10;;;1.37;;
6479;SDS011;71753;48.772;9.148;2023-09-19T01:53:34;1.00;;;1.00;;
6479;SDS011;71753;48.772;9.148;2023-09-19T01:56:07;0.80;;;0.80;;
6479;SDS011;71753;48.772;9.148;2023-09-19T01:58:37;0.70;;;0.70;;
6479;SDS011;71753;48.772;9.148;2023-09-19T02:01:09;0.83;;;0.83;;
6479;SDS011;71753;48.772;9.148;2023-09-19T02:03:39;1.00;;;0.90;;
6479;SDS011;71753;48.772;9.148;2023-09-19T02:06:12;1.10;;;0.90;;
6479;SDS011;71753;48.772;9.148;2023-09-19T02:08:40;1.40;;;0.70;;
6479;SDS011;71753;48.772;9.148;2023-09-19T02:11:07;0.90;;;0.80;;
6479;SDS011;71753;48.772;9.148;2023-09-19T02:13:34;1.70;;;1.00;;
6479;SDS011;71753;48.772;9.148;2023-09-19T02:16:00;1.10;;;0.90;;
6479;SDS011;71753;48.772;9.148;2023-09-19T02:18:30;1.30;;;1.10;;
6479;SDS011;71753;48.772;9.148;2023-09-19T02:20:59;1.40;;;0.97;;
6479;SDS011;71753;48.772;9.148;2023-09-19T02:23:26;1.10;;;0.90;;
6479;SDS011;71753;48.772;9.148;2023-09-19T02:25:55;1.00;;;0.90;;
6479;SDS011;71753;48.772;9.148;2023-09-19T02:28:23;1.10;;;1.00;;
6479;SDS011;71753;48.772;9.148;2023-09-19T02:30:51;1.00;;;0.90;;
6479;SDS011;71753;48.772;9.148;2023-09-19T02:33:18;0.80;;;0.80;;
6479;SDS011;71753;48.772;9.148;2023-09-19T02:35:46;1.13;;;1.03;;
6479;SDS011;71753;48.772;9.148;2023-09-19T02:38:13;1.23;;;0.90;;
6479;SDS011;71753;48.772;9.148;2023-09-19T02:40:43;0.83;;;0.83;;
6479;SDS011;71753;48.772;9.148;2023-09-19T02:43:10;0.93;;;0.93;;
6479;SDS011;71753;48.772;9.148;2023-09-19T02:45:37;1.00;;;0.93;;
6479;SDS011;71753;48.772;9.148;2023-09-19T02:48:04;1.23;;;1.00;;
6479;SDS011;71753;48.772;9.148;2023-09-19T02:50:32;1.23;;;1.10;;
6479;SDS011;71753;48.772;9.148;2023-09-19T02:53:01;1.20;;;0.80;;
6479;SDS011;71753;48.772;9.148;2023-09-19T02:55:28;0.90;;;0.90;;
6479;SDS011;71753;48.772;9.148;2023-09-19T02:57:57;1.10;;;1.00;;
6479;SDS011;71753;48.772;9.148;2023-09-19T03:00:23;1.30;;;1.10;;
6479;SDS011;71753;48.772;9.148;2023-09-19T03:02:52;2.60;;;0.90;;
6479;SDS011;71753;48.772;9.148;2023-09-19T03:05:20;0.70;;;0.70;;
6479;SDS011;71753;48.772;9.148;2023-09-19T03:07:48;1.00;;;0.90;;
6479;SDS011;71753;48.772;9.148;2023-09-19T03:10:18;1.07;;;0.97;;
6479;SDS011;71753;48.772;9.148;2023-09-19T03:12:45;0.97;;;0.90;;
6479;SDS011;71753;48.772;9.148;2023-09-19T03:15:12;1.13;;;0.90;;
6479;SDS011;71753;48.772;9.148;2023-09-19T03:17:42;1.27;;;1.00;;
6479;SDS011;71753;48.772;9.148;2023-09-19T03:20:10;1.33;;;0.80;;
6479;SDS011;71753;48.772;9.148;2023-09-19T03:22:42;2.13;;;0.83;;
6479;SDS011;71753;48.772;9.148;2023-09-19T03:25:09;1.60;;;1.00;;
6479;SDS011;71753;48.772;9.148;2023-09-19T03:27:38;0.83;;;0.83;;
6479;SDS011;71753;48.772;9.148;2023-09-19T03:30:06;1.10;;;0.90;;
6479;SDS011;71753;48.772;9.148;2023-09-19T03:32:34;2.60;;;1.00;;
6479;SDS011;71753;48.772;9.148;2023-09-19T03:35:01;1.80;;;1.27;;
6479;SDS011;71753;48.772;9.148;2023-09-19T03:37:30;1.07;;;1.00;;
6479;SDS011;71753;48.772;9.148;2023-09-19T03:39:57;1.10;;;1.00;;
6479;SDS011;71753;48.772;9.148;2023-09-19T03:42:24;0.90;;;0.90;;
6479;SDS011;71753;48.772;9.148;2023-09-19T03:44:53;1.00;;;0.87;;
6479;SDS011;71753;48.772;9.148;2023-09-19T03:47:20;1.40;;;1.10;;
6479;SDS011;71753;48.772;9.148;2023-09-19T03:49:47;1.10;;;0.90;;
6479;SDS011;71753;48.772;9.148;2023-09-19T03:52:13;1.17;;;1.07;;
6479;SDS011;71753;48.772;9.148;2023-09-19T03:54:40;1.30;;;1.20;;
6479;SDS011;71753;48.772;9.148;2023-09-19T03:57:08;2.13;;;1.10;;
6479;SDS011;71753;48.772;9.148;2023-09-19T03:59:35;1.13;;;1.03;;
6479;SDS011;71753;48.772;9.148;2023-09-19T04:02:03;2.03;;;1.20;;
6479;SDS011;71753;48.772;9.148;2023-09-19T04:04:36;1.20;;;1.10;;
6479;SDS011;71753;48.772;9.148;2023-09-19T04:07:03;1.57;;;0.90;;
6479;SDS011;71753;48.772;9.148;2023-09-19T04:09:30;1.30;;;1.00;;
6479;SDS011;71753;48.772;9.148;2023-09-19T04:11:56;1.23;;;1.10;;
6479;SDS011;71753;48.772;9.148;2023-09-19T04:14:23;1.47;;;1.27;;
6479;SDS011;71753;48.772;9.148;2023-09-19T04:16:49;1.30;;;1.20;;
6479;SDS011;71753;48.772;9.148;2023-09-19T04:19:17;0.90;;;0.90;;
6479;SDS011;71753;48.772;9.148;2023-09-19T04:21:46;1.33;;;1.10;;
6479;SDS011;71753;48.772;9.148;2023-09-19T04:24:12;1.17;;;1.00;;
6479;SDS011;71753;48.772;9.148;2023-09-19T04:26:39;1.17;;;1.00;;
6479;SDS011;71753;48.772;9.148;2023-09-19T04:29:06;1.23;;;1.10;;
6479;SDS011;71753;48.772;9.148;2023-09-19T04:31:36;1.23;;;1.00;;
6479;SDS011;71753;48.772;9.148;2023-09-19T04:34:05;1.53;;;1.00;;
6479;SDS011;71753;48.772;9.148;2023-09-19T04:36:34;1.03;;;0.93;;
6479;SDS011;71753;48.772;9.148;2023-09-19T04:39:01;3.33;;;1.40;;
6479;SDS011;71753;48.772;9.148;2023-09-19T04:41:31;1.07;;;0.97;;
6479;SDS011;71753;48.772;9.148;2023-09-19T04:43:58;1.10;;;1.00;;
6479;SDS011;71753;48.772;9.148;2023-09-19T04:46:24;1.03;;;0.93;;
6479;SDS011;71753;48.772;9.148;2023-09-19T04:48:51;1.20;;;1.07;;
6479;SDS011;71753;48.772;9.148;2023-09-19T04:51:18;1.27;;;1.17;;
6479;SDS011;71753;48.772;9.148;2023-09-19T04:53:47;1.83;;;1.27;;
6479;SDS011;71753;48.772;9.148;2023-09-19T04:56:14;1.03;;;0.93;;
6479;SDS011;71753;48.772;9.148;2023-09-19T04:58:41;1.30;;;1.10;;
6479;SDS011;71753;48.772;9.148;2023-09-19T05:01:07;1.20;;;1.10;;
6479;SDS011;71753;48.772;9.148;2023-09-19T05:03:37;1.30;;;1.20;;
6479;SDS011;71753;48.772;9.148;2023-09-19T05:06:04;1.37;;;1.20;;
6479;SDS011;71753;48.772;9.148;2023-09-19T05:08:31;1.27;;;1.17;;
6479;SDS011;71753;48.772;9.148;2023-09-19T05:10:59;1.20;;;1.10;;
6479;SDS011;71753;48.772;9.148;2023-09-19T05:13:28;1.33;;;1.23;;
6479;SDS011;71753;48.772;9.148;2023-09-19T05:15:59;1.20;;;1.10;;
6479;SDS011;71753;48.772;9.148;2023-09-19T05:18:26;1.57;;;1.20;;
6479;SDS011;71753;48.772;9.148;2023-09-19T05:20:53;1.10;;;1.00;;
6479;SDS011;71753;48.772;9.148;2023-09-19T05:23:21;1.20;;;1.10;;
6479;SDS011;71753;48.772;9.148;2023-09-19T05:25:47;1.97;;;1.20;;
6479;SDS011;71753;48.772;9.148;2023-09-19T05:28:16;1.67;;;1.20;;
6479;SDS011;71753;48.772;9.148;2023-09-19T05:30:42;1.33;;;1.20;;
6479;SDS011;71753;48.772;9.148;2023-09-19T05:33:09;1.20;;;1.10;;
6479;SDS011;71753;48.772;9.148;2023-09-19T05:35:36;1.20;;;1.10;;
6479;SDS011;71753;48.772;9.148;2023-09-19T05:38:04;2.50;;;1.17;;
6479;SDS011;71753;48.772;9.148;2023-09-19T05:40:34;1.20;;;1.10;;
6479;SDS011;71753;48.772;9.148;2023-09-19T05:43:01;1.53;;;1.20;;
6479;SDS011;71753;48.772;9.148;2023-09-19T05:45:30;1.20;;;1.10;;
6479;SDS011;71753;48.772;9.148;2023-09-19T05:48:06;1.90;;;1.17;;
6479;SDS011;71753;48.772;9.148;2023-09-19T05:50:34;2.33;;;1.13;;
6479;SDS011;71753;48.772;9.148;2023-09-19T05:53:01;1.00;;;1.00;;
6479;SDS011;71753;48.772;9.148;2023-09-19T05:55:29;1.30;;;1.20;;
6479;SDS011;71753;48.772;9.148;2023-09-19T05:57:56;1.37;;;1.27;;
6479;SDS011;71753;48.772;9.148;2023-09-19T06:00:23;1.30;;;1.20;;
6479;SDS011;71753;48.772;9.148;2023-09-19T06:02:53;1.10;;;1.00;;
6479;SDS011;71753;48.772;9.148;2023-09-19T06:05:21;1.57;;;1.30;;
6479;SDS011;71753;48.772;9.148;2023-09-19T06:07:49;1.57;;;1.40;;
6479;SDS011;71753;48.772;9.148;2023-09-19T06:10:17;2.00;;;1.30;;
6479;SDS011;71753;48.772;9.148;2023-09-19T06:12:46;2.90;;;1.20;;
6479;SDS011;71753;48.772;9.148;2023-09-19T06:15:14;2.23;;;1.50;;
6479;SDS011;71753;48.772;9.148;2023-09-19T06:17:46;2.03;;;1.40;;
6479;SDS011;71753;48.772;9.148;2023-09-19T06:20:14;2.17;;;1.40;;
6479;SDS011;71753;48.772;9.148;2023-09-19T06:22:42;2.07;;;1.63;;
6479;SDS011;71753;48.772;9.148;2023-09-19T06:25:10;1.60;;;1.20;;
6479;SDS011;71753;48.772;9.148;2023-09-19T06:27:38;1.77;;;1.40;;
6479;SDS011;71753;48.772;9.148;2023-09-19T06:30:07;2.80;;;1.53;;
6479;SDS011;71753;48.772;9.148;2023-09-19T06:32:36;1.63;;;1.50;;
6479;SDS011;71753;48.772;9.148;2023-09-19T06:35:03;1.80;;;1.40;;
6479;SDS011;71753;48.772;9.148;2023-09-19T06:37:34;2.27;;;1.50;;
6479;SDS011;71753;48.772;9.148;2023-09-19T06:40:00;3.20;;;1.40;;
6479;SDS011;71753;48.772;9.148;2023-09-19T06:42:28;2.23;;;1.30;;
6479;SDS011;71753;48.772;9.148;2023-09-19T06:44:54;2.20;;;1.43;;
6479;SDS011;71753;48.772;9.148;2023-09-19T06:47:21;1.93;;;1.60;;
6479;SDS011;71753;48.772;9.148;2023-09-19T06:49:51;1.50;;;1.30;;
6479;SDS011;71753;48.772;9.148;2023-09-19T06:52:18;2.17;;;1.60;;
6479;SDS011;71753;48.772;9.148;2023-09-19T06:54:48;1.37;;;1.20;;
6479;SDS011;71753;48.772;9.148;2023-09-19T06:57:17;1.40;;;1.20;;
6479;SDS011;71753;48.772;9.148;2023-09-19T06:59:45;1.60;;;1.30;;
6479;SDS011;71753;48.772;9.148;2023-09-19T07:02:11;1.60;;;1.50;;
6479;SDS011;71753;48.772;9.148;2023-09-19T07:04:38;1.60;;;1.50;;
6479;SDS011;71753;48.772;9.148;2023-09-19T07:07:05;1.37;;;1.27;;
6479;SDS011;71753;48.772;9.148;2023-09-19T07:09:34;1.60;;;1.40;;
6479;SDS011;71753;48.772;9.148;2023-09-19T07:12:02;1.90;;;1.50;;
6479;SDS011;71753;48.772;9.148;2023-09-19T07:14:29;1.57;;;1.30;;
6479;SDS011;71753;48.772;9.148;2023-09-19T07:16:55;2.20;;;1.43;;
6479;SDS011;71753;48.772;9.148;2023-09-19T07:19:22;1.70;;;1.40;;
6479;SDS011;71753;48.772;9.148;2023-09-19T07:21:49;1.60;;;1.37;;
6479;SDS011;71753;48.772;9.148;2023-09-19T07:24:16;1.50;;;1.30;;
6479;SDS011;71753;48.772;9.148;2023-09-19T07:26:42;2.00;;;1.60;;
6479;SDS011;71753;48.772;9.148;2023-09-19T07:29:12;1.80;;;1.50;;
6479;SDS011;71753;48.772;9.148;2023-09-19T07:31:39;1.73;;;1.50;;
6479;SDS011;71753;48.772;9.148;2023-09-19T07:34:06;1.90;;;1.40;;
6479;SDS011;71753;48.772;9.148;2023-09-19T07:36:33;3.20;;;1.30;;
6479;SDS011;71753;48.772;9.148;2023-09-19T07:39:02;1.67;;;1.40;;
6479;SDS011;71753;48.772;9.148;2023-09-19T07:41:31;2.00;;;1.50;;
6479;SDS011;71753;48.772;9.148;2023-09-19T07:43:58;1.40;;;1.30;;
6479;SDS011;71753;48.772;9.148;2023-09-19T07:46:27;2.33;;;1.40;;
6479;SDS011;71753;48.772;9.148;2023-09-19T07:48:56;1.60;;;1.30;;
6479;SDS011;71753;48.772;9.148;2023-09-19T07:51:23;2.00;;;1.40;;
6479;SDS011;71753;48.772;9.148;2023-09-19T07:53:49;1.63;;;1.40;;
6479;SDS011;71753;48.772;9.148;2023-09-19T07:56:16;1.80;;;1.40;;
6479;SDS011;71753;48.772;9.148;2023-09-19T07:58:45;1.90;;;1.50;;
6479;SDS011;71753;48.772;9.148;2023-09-19T08:01:12;1.93;;;1.57;;
6479;SDS011;71753;48.772;9.148;2023-09-19T08:03:40;1.67;;;1.40;;
6479;SDS011;71753;48.772;9.148;2023-09-19T08:06:08;1.70;;;1.30;;
6479;SDS011;71753;48.772;9.148;2023-09-19T08:08:35;1.90;;;1.50;;
6479;SDS011;71753;48.772;9.148;2023-09-19T08:11:03;1.30;;;1.20;;
6479;SDS011;71753;48.772;9.148;2023-09-19T08:13:36;2.13;;;1.37;;
6479;SDS011;71753;48.772;9.148;2023-09-19T08:16:06;1.57;;;1.30;;
6479;SDS011;71753;48.772;9.148;2023-09-19T08:18:33;1.47;;;1.30;;
6479;SDS011;71753;48.772;9.148;2023-09-19T08:21:01;1.30;;;1.20;;
6479;SDS011;71753;48.772;9.148;2023-09-19T08:23:28;1.60;;;1.43;;
6479;SDS011;71753;48.772;9.148;2023-09-19T08:25:56;1.40;;;1.30;;
6479;SDS011;71753;48.772;9.148;2023-09-19T08:28:23;1.83;;;1.50;;
6479;SDS011;71753;48.772;9.148;2023-09-19T08:30:50;1.70;;;1.30;;
6479;SDS011;71753;48.772;9.148;2023-09-19T08:33:18;1.40;;;1.30;;
6479;SDS011;71753;48.772;9.148;2023-09-19T08:35:45;1.57;;;1.40;;
6479;SDS011;71753;48.772;9.148;2023-09-19T08:38:13;1.57;;;1.30;;
6479;SDS011;71753;48.772;9.148;2023-09-19T08:40:40;1.47;;;1.37;;
6479;SDS011;71753;48.772;9.148;2023-09-19T08:43:08;1.70;;;1.60;;
6479;SDS011;71753;48.772;9.148;2023-09-19T08:45:35;1.80;;;1.30;;
6479;SDS011;71753;48.772;9.148;2023-09-19T08:48:10;1.60;;;1.30;;
6479;SDS011;71753;48.772;9.148;2023-09-19T08:50:47;1.40;;;1.30;;
6479;SDS011;71753;48.772;9.148;2023-09-19T08:53:19;1.20;;;1.07;;
6479;SDS011;71753;48.772;9.148;2023-09-19T08:55:52;1.80;;;1.17;;
6479;SDS011;71753;48.772;9.148;2023-09-19T08:58:21;1.90;;;1.40;;
6479;SDS011;71753;48.772;9.148;2023-09-19T09:00:53;1.30;;;1.20;;
6479;SDS011;71753;48.772;9.148;2023-09-19T09:03:20;1.40;;;1.13;;
6479;SDS011;71753;48.772;9.148;2023-09-19T09:05:48;1.13;;;1.03;;
6479;SDS011;71753;48.772;9.148;2023-09-19T09:08:19;1.30;;;1.20;;
6479;SDS011;71753;48.772;9.148;2023-09-19T09:10:46;1.07;;;0.97;;
6479;SDS011;71753;48.772;9.148;2023-09-19T09:13:14;1.40;;;1.10;;
6479;SDS011;71753;48.772;9.148;2023-09-19T09:15:43;1.70;;;1.30;;
6479;SDS011;71753;48.772;9.148;2023-09-19T09:18:10;1.57;;;1.17;;
6479;SDS011;71753;48.772;9.148;2023-09-19T09:20:38;1.30;;;1.20;;
6479;SDS011;71753;48.772;9.148;2023-09-19T09:23:05;1.63;;;1.23;;
6479;SDS011;71753;48.772;9.148;2023-09-19T09:25:48;1.20;;;1.10;;
6479;SDS011;71753;48.772;9.148;2023-09-19T09:28:20;1.87;;;1.30;;
6479;SDS011;71753;48.772;9.148;2023-09-19T09:30:47;2.30;;;1.43;;
6479;SDS011;71753;48.772;9.148;2023-09-19T09:33:14;1.57;;;1.23;;
6479;SDS011;71753;48.772;9.148;2023-09-19T09:35:48;1.43;;;1.23;;
6479;SDS011;71753;48.772;9.148;2023-09-19T09:38:17;1.53;;;1.30;;
6479;SDS011;71753;48.772;9.148;2023-09-19T09:40:49;1.17;;;1.07;;
6479;SDS011;71753;48.772;9.148;2023-09-19T09:43:25;1.70;;;1.37;;
6479;SDS011;71753;48.772;9.148;2023-09-19T09:48:56;2.03;;;1.40;;
6479;SDS011;71753;48.772;9.148;2023-09-19T09:51:45;2.47;;;1.30;;
6479;SDS011;71753;48.772;9.148;2023-09-19T09:54:22;1.30;;;1.20;;
6479;SDS011;71753;48.772;9.148;2023-09-19T09:56:54;1.30;;;1.20;;
6479;SDS011;71753;48.772;9.148;2023-09-19T10:02:20;2.17;;;1.40;;
6479;SDS011;71753;48.772;9.148;2023-09-19T10:04:54;2.13;;;1.40;;
6479;SDS011;71753;48.772;9.148;2023-09-19T10:07:34;1.67;;;1.30;;
6479;SDS011;71753;48.772;9.148;2023-09-19T10:10:04;1.10;;;1.00;;
6479;SDS011;71753;48.772;9.148;2023-09-19T10:12:41;1.60;;;1.50;;
6479;SDS011;71753;48.772;9.148;2023-09-19T10:15:11;2.13;;;1.40;;
6479;SDS011;71753;48.772;9.148;2023-09-19T10:17:42;1.80;;;1.23;;
6479;SDS011;71753;48.772;9.148;2023-09-19T10:20:14;1.67;;;1.27;;
6479;SDS011;71753;48.772;9.148;2023-09-19T10:23:03;1.83;;;1.57;;
6479;SDS011;71753;48.772;9.148;2023-09-19T10:25:36;1.50;;;1.30;;
6479;SDS011;71753;48.772;9.148;2023-09-19T10:28:06;1.70;;;1.33;;
6479;SDS011;71753;48.772;9.148;2023-09-19T10:30:36;1.40;;;1.30;;
6479;SDS011;71753;48.772;9.148;2023-09-19T10:33:08;1.20;;;1.10;;
6479;SDS011;71753;48.772;9.148;2023-09-19T10:35:37;2.37;;;1.50;;
6479;SDS011;71753;48.772;9.148;2023-09-19T10:38:05;2.20;;;1.30;;
6479;SDS011;71753;48.772;9.148;2023-09-19T10:40:34;2.53;;;1.20;;
6479;SDS011;71753;48.772;9.148;2023-09-19T10:43:02;1.20;;;1.10;;
6479;SDS011;71753;48.772;9.148;2023-09-19T10:45:32;1.40;;;1.30;;
6479;SDS011;71753;48.772;9.148;2023-09-19T10:48:00;1.63;;;1.30;;
6479;SDS011;71753;48.772;9.148;2023-09-19T10:50:29;1.27;;;1.17;;
6479;SDS011;71753;48.772;9.148;2023-09-19T10:52:59;2.10;;;1.10;;
6479;SDS011;71753;48.772;9.148;2023-09-19T10:55:30;1.50;;;1.37;;
6479;SDS011;71753;48.772;9.148;2023-09-19T10:57:58;1.30;;;1.20;;
6479;SDS011;71753;48.772;9.148;2023-09-19T11:00:54;1.70;;;1.00;;
6479;SDS011;71753;48.772;9.148;2023-09-19T11:03:26;1.27;;;1.17;;
6479;SDS011;71753;48.772;9.148;2023-09-19T11:06:03;1.40;;;1.20;;
6479;SDS011;71753;48.772;9.148;2023-09-19T11:08:54;1.30;;;1.20;;
6479;SDS011;71753;48.772;9.148;2023-09-19T11:14:30;1.60;;;1.20;;
6479;SDS011;71753;48.772;9.148;2023-09-19T11:25:51;2.73;;;1.20;;
6479;SDS011;71753;48.772;9.148;2023-09-19T11:28:31;1.93;;;1.20;;
6479;SDS011;71753;48.772;9.148;2023-09-19T11:40:31;1.47;;;1.20;;
6479;SDS011;71753;48.772;9.148;2023-09-19T11:42:58;1.30;;;1.17;;
6479;SDS011;71753;48.772;9.148;2023-09-19T11:48:30;1.20;;;1.10;;
6479;SDS011;71753;48.772;9.148;2023-09-19T11:51:01;1.30;;;1.20;;
6479;SDS011;71753;48.772;9.148;2023-09-19T11:53:40;1.20;;;1.10;;
6479;SDS011;71753;48.772;9.148;2023-09-19T11:56:08;1.20;;;1.10;;
6479;SDS011;71753;48.772;9.148;2023-09-19T11:58:36;1.43;;;1.00;;
6479;SDS011;71753;48.772;9.148;2023-09-19T12:01:04;1.33;;;1.23;;
6479;SDS011;71753;48.772;9.148;2023-09-19T12:03:38;1.27;;;1.17;;
6479;SDS011;71753;48.772;9.148;2023-09-19T12:06:12;1.10;;;1.00;;
6479;SDS011;71753;48.772;9.148;2023-09-19T12:08:40;2.73;;;1.20;;
6479;SDS011;71753;48.772;9.148;2023-09-19T12:11:14;2.23;;;1.30;;
6479;SDS011;71753;48.772;9.148;2023-09-19T12:13:43;1.27;;;1.10;;
6479;SDS011;71753;48.772;9.148;2023-09-19T12:16:12;1.23;;;1.13;;
6479;SDS011;71753;48.772;9.148;2023-09-19T12:18:41;1.10;;;1.00;;
6479;SDS011;71753;48.772;9.148;2023-09-19T12:21:22;1.70;;;1.20;;
6479;SDS011;71753;48.772;9.148;2023-09-19T12:23:57;1.20;;;1.10;;
6479;SDS011;71753;48.772;9.148;2023-09-19T12:26:42;2.10;;;1.10;;
6479;SDS011;71753;48.772;9.148;2023-09-19T12:29:13;1.20;;;1.10;;
6479;SDS011;71753;48.772;9.148;2023-09-19T12:31:51;2.27;;;1.20;;
6479;SDS011;71753;48.772;9.148;2023-09-19T12:34:21;1.40;;;1.30;;
6479;SDS011;71753;48.772;9.148;2023-09-19T12:37:04;1.30;;;1.20;;
6479;SDS011;71753;48.772;9.148;2023-09-19T12:39:37;1.43;;;1.10;;
6479;SDS011;71753;48.772;9.148;2023-09-19T12:42:06;2.70;;;1.20;;
6479;SDS011;71753;48.772;9.148;2023-09-19T12:44:35;1.60;;;1.10;;
6479;SDS011;71753;48.772;9.148;2023-09-19T12:47:12;1.57;;;1.23;;
6479;SDS011;71753;48.772;9.148;2023-09-19T12:52:45;1.30;;;1.20;;
6479;SDS011;71753;48.772;9.148;2023-09-19T12:55:24;2.00;;;1.30;;
6479;SDS011;71753;48.772;9.148;2023-09-19T12:57:58;2.00;;;1.40;;
6479;SDS011;71753;48.772;9.148;2023-09-19T13:00:33;1.30;;;1.20;;
6479;SDS011;71753;48.772;9.148;2023-09-19T13:03:17;1.47;;;1.10;;
6479;SDS011;71753;48.772;9.148;2023-09-19T13:05:50;1.30;;;1.20;;
6479;SDS011;71753;48.772;9.148;2023-09-19T13:08:24;1.30;;;1.20;;
6479;SDS011;71753;48.772;9.148;2023-09-19T13:11:08;1.73;;;1.20;;
6479;SDS011;71753;48.772;9.148;2023-09-19T13:13:38;1.50;;;1.30;;
6479;SDS011;71753;48.772;9.148;2023-09-19T13:16:06;1.53;;;1.20;;
6479;SDS011;71753;48.772;9.148;2023-09-19T13:18:46;1.20;;;1.10;;
6479;SDS011;71753;48.772;9.148;2023-09-19T13:21:16;1.37;;;1.27;;
6479;SDS011;71753;48.772;9.148;2023-09-19T13:23:52;1.60;;;1.30;;
6479;SDS011;71753;48.772;9.148;2023-09-19T13:26:19;1.30;;;1.20;;
6479;SDS011;71753;48.772;9.148;2023-09-19T13:28:47;1.60;;;1.20;;
6479;SDS011;71753;48.772;9.148;2023-09-19T13:31:14;1.37;;;1.23;;
6479;SDS011;71753;48.772;9.148;2023-09-19T13:33:44;1.57;;;1.37;;
6479;SDS011;71753;48.772;9.148;2023-09-19T13:36:11;1.50;;;1.37;;
6479;SDS011;71753;48.772;9.148;2023-09-19T13:38:39;1.50;;;1.40;;
6479;SDS011;71753;48.772;9.148;2023-09-19T13:41:09;1.33;;;1.23;;
6479;SDS011;71753;48.772;9.148;2023-09-19T13:43:36;1.60;;;1.40;;
6479;SDS011;71753;48.772;9.148;2023-09-19T13:46:03;1.57;;;1.20;;
6479;SDS011;71753;48.772;9.148;2023-09-19T13:48:32;1.67;;;1.40;;
6479;SDS011;71753;48.772;9.148;2023-09-19T13:51:01;1.30;;;1.20;;
6479;SDS011;71753;48.772;9.148;2023-09-19T13:53:28;1.30;;;1.20;;
6479;SDS011;71753;48.772;9.148;2023-09-19T13:55:55;1.50;;;1.30;;
6479;SDS011;71753;48.772;9.148;2023-09-19T13:58:23;1.57;;;1.40;;
6479;SDS011;71753;48.772;9.148;2023-09-19T14:00:50;1.37;;;1.20;;
6479;SDS011;71753;48.772;9.148;2023-09-19T14:03:20;1.70;;;1.50;;
6479;SDS011;71753;48.772;9.148;2023-09-19T14:05:46;1.80;;;1.33;;
6479;SDS011;71753;48.772;9.148;2023-09-19T14:08:14;1.40;;;1.30;;
6479;SDS011;71753;48.772;9.148;2023-09-19T14:10:40;1.40;;;1.30;;
6479;SDS011;71753;48.772;9.148;2023-09-19T14:13:07;1.57;;;1.30;;
6479;SDS011;71753;48.772;9.148;2023-09-19T14:15:37;2.43;;;1.50;;
6479;SDS011;71753;48.772;9.148;2023-09-19T14:18:04;1.50;;;1.30;;
6479;SDS011;71753;48.772;9.148;2023-09-19T14:20:31;2.17;;;1.40;;
6479;SDS011;71753;48.772;9.148;2023-09-19T14:22:57;1.40;;;1.30;;
6479;SDS011;71753;48.772;9.148;2023-09-19T14:25:25;1.33;;;1.20;;
6479;SDS011;71753;48.772;9.148;2023-09-19T14:27:52;1.30;;;1.20;;
6479;SDS011;71753;48.772;9.148;2023-09-19T14:30:24;1.30;;;1.20;;
6479;SDS011;71753;48.772;9.148;2023-09-19T14:32:54;1.50;;;1.40;;
6479;SDS011;71753;48.772;9.148;2023-09-19T14:35:22;1.70;;;1.30;;
6479;SDS011;71753;48.772;9.148;2023-09-19T14:37:49;1.30;;;1.20;;
6479;SDS011;71753;48.772;9.148;2023-09-19T14:40:16;1.50;;;1.30;;
6479;SDS011;71753;48.772;9.148;2023-09-19T14:42:43;1.40;;;1.30;;
6479;SDS011;71753;48.772;9.148;2023-09-19T14:45:10;1.50;;;1.20;;
6479;SDS011;71753;48.772;9.148;2023-09-19T14:47:39;1.20;;;1.10;;
6479;SDS011;71753;48.772;9.148;2023-09-19T14:50:09;1.37;;;1.27;;
6479;SDS011;71753;48.772;9.148;2023-09-19T14:52:37;1.30;;;1.20;;
6479;SDS011;71753;48.772;9.148;2023-09-19T14:55:05;1.53;;;1.20;;
6479;SDS011;71753;48.772;9.148;2023-09-19T14:57:34;1.30;;;1.20;;
6479;SDS011;71753;48.772;9.148;2023-09-19T15:00:05;1.03;;;0.93;;
6479;SDS011;71753;48.772;9.148;2023-09-19T15:02:37;1.30;;;1.20;;
6479;SDS011;71753;48.772;9.148;2023-09-19T15:05:05;1.40;;;1.20;;
6479;SDS011;71753;48.772;9.148;2023-09-19T15:07:34;1.10;;;1.00;;
6479;SDS011;71753;48.772;9.148;2023-09-19T15:10:03;1.30;;;1.20;;
6479;SDS011;71753;48.772;9.148;2023-09-19T15:12:32;1.57;;;1.40;;
6479;SDS011;71753;48.772;9.148;2023-09-19T15:15:00;2.17;;;1.50;;
6479;SDS011;71753;48.772;9.148;2023-09-19T15:17:26;1.30;;;1.10;;
6479;SDS011;71753;48.772;9.148;2023-09-19T15:19:53;1.37;;;1.17;;
6479;SDS011;71753;48.772;9.148;2023-09-19T15:22:20;1.30;;;1.20;;
6479;SDS011;71753;48.772;9.148;2023-09-19T15:24:49;1.17;;;1.07;;
6479;SDS011;71753;48.772;9.148;2023-09-19T15:27:16;1.50;;;1.40;;
6479;SDS011;71753;48.772;9.148;2023-09-19T15:29:44;1.30;;;1.20;;
6479;SDS011;71753;48.772;9.148;2023-09-19T15:32:11;1.30;;;1.20;;
6479;SDS011;71753;48.772;9.148;2023-09-19T15:34:38;1.20;;;1.10;;
6479;SDS011;71753;48.772;9.148;2023-09-19T15:37:05;1.20;;;1.10;;
6479;SDS011;71753;48.772;9.148;2023-09-19T15:39:31;1.43;;;1.03;;
6479;SDS011;71753;48.772;9.148;2023-09-19T15:42:00;1.27;;;1.10;;
6479;SDS011;71753;48.772;9.148;2023-09-19T15:44:27;1.30;;;1.20;;
6479;SDS011;71753;48.772;9.148;2023-09-19T15:46:54;1.20;;;1.10;;
6479;SDS011;71753;48.772;9.148;2023-09-19T15:49:21;1.10;;;1.00;;
6479;SDS011;71753;48.772;9.148;2023-09-19T15:51:48;1.30;;;1.20;;